sensor_id;sensor_type;location;lat;lon;timestamp;P1;durP1;ratioP1;P2;durP2;ratioP2
9409;SDS011;4744;52.576;13.568;2024-03-02T00:00:50;46.97;;;24.63;;
9409;SDS011;4744;52.576;13.568;2024-03-02T00:03:17;48.00;;;23.65;;
9409;SDS011;4744;52.576;13.568;2024-03-02T00:05:48;44.13;;;24.80;;
9409;SDS011;4744;52.576;13.568;2024-03-02T00:08:18;52.97;;;25.67;;
9409;SDS011;4744;52.576;13.568;2024-03-02T00:10:50;45.42;;;23.77;;
9409;SDS011;4744;52.576;13.568;2024-03-02T00:13:18;48.42;;;25.48;;
9409;SDS011;4744;52.576;13.568;2024-03-02T00:15:51;46.10;;;24.67;;
9409;SDS011;4744;52.576;13.568;2024-03-02T00:18:19;47.63;;;24.35;;
9409;SDS011;4744;52.576;13.568;2024-03-02T00:20:47;51.70;;;25.15;;
9409;SDS011;4744;52.576;13.568;2024-03-02T00:23:15;54.13;;;26.15;;
9409;SDS011;4744;52.576;13.568;2024-03-02T00:25:44;48.30;;;25.67;;
9409;SDS011;4744;52.576;13.568;2024-03-02T00:28:13;53.95;;;26.23;;
9409;SDS011;4744;52.576;13.568;2024-03-02T00:30:54;51.95;;;25.48;;
9409;SDS011;4744;52.576;13.568;2024-03-02T00:33:22;49.17;;;26.05;;
9409;SDS011;4744;52.576;13.568;2024-03-02T00:35:52;48.50;;;26.02;;
9409;SDS011;4744;52.576;13.568;2024-03-02T00:38:20;53.50;;;24.90;;
9409;SDS011;4744;52.576;13.568;2024-03-02T00:40:47;49.50;;;26.38;;
9409;SDS011;4744;52.576;13.568;2024-03-02T00:46:12;50.22;;;24.95;;
9409;SDS011;4744;52.576;13.568;2024-03-02T00:48:42;48.50;;;25.80;;
9409;SDS011;4744;52.576;13.568;2024-03-02T00:51:20;51.40;;;26.23;;
9409;SDS011;4744;52.576;13.568;2024-03-02T00:53:48;54.00;;;28.40;;
9409;SDS011;4744;52.576;13.568;2024-03-02T00:56:15;51.17;;;24.75;;
9409;SDS011;4744;52.576;13.568;2024-03-02T00:58:42;48.75;;;25.10;;
9409;SDS011;4744;52.576;13.568;2024-03-02T01:01:09;49.67;;;25.75;;
9409;SDS011;4744;52.576;13.568;2024-03-02T01:03:38;49.05;;;25.02;;
9409;SDS011;4744;52.576;13.568;2024-03-02T01:06:04;53.22;;;26.25;;
9409;SDS011;4744;52.576;13.568;2024-03-02T01:08:32;54.08;;;27.08;;
9409;SDS011;4744;52.576;13.568;2024-03-02T01:10:59;54.17;;;27.42;;
9409;SDS011;4744;52.576;13.568;2024-03-02T01:13:27;54.22;;;27.42;;
9409;SDS011;4744;52.576;13.568;2024-03-02T01:15:53;57.40;;;26.88;;
9409;SDS011;4744;52.576;13.568;2024-03-02T01:18:21;55.15;;;25.80;;
9409;SDS011;4744;52.576;13.568;2024-03-02T01:20:48;55.25;;;26.65;;
9409;SDS011;4744;52.576;13.568;2024-03-02T01:23:17;52.28;;;25.10;;
9409;SDS011;4744;52.576;13.568;2024-03-02T01:25:45;59.15;;;28.67;;
9409;SDS011;4744;52.576;13.568;2024-03-02T01:28:12;71.15;;;29.33;;
9409;SDS011;4744;52.576;13.568;2024-03-02T01:30:40;67.70;;;29.58;;
9409;SDS011;4744;52.576;13.568;2024-03-02T01:33:07;61.50;;;30.15;;
9409;SDS011;4744;52.576;13.568;2024-03-02T01:35:35;65.10;;;29.92;;
9409;SDS011;4744;52.576;13.568;2024-03-02T01:38:02;67.25;;;31.63;;
9409;SDS011;4744;52.576;13.568;2024-03-02T01:40:31;69.50;;;31.27;;
9409;SDS011;4744;52.576;13.568;2024-03-02T01:42:58;67.35;;;31.85;;
9409;SDS011;4744;52.576;13.568;2024-03-02T01:45:25;68.82;;;29.20;;
9409;SDS011;4744;52.576;13.568;2024-03-02T01:47:52;65.53;;;31.02;;
9409;SDS011;4744;52.576;13.568;2024-03-02T01:50:24;62.45;;;29.75;;
9409;SDS011;4744;52.576;13.568;2024-03-02T01:52:54;65.70;;;30.17;;
9409;SDS011;4744;52.576;13.568;2024-03-02T01:55:21;64.15;;;29.27;;
9409;SDS011;4744;52.576;13.568;2024-03-02T01:57:48;63.92;;;29.67;;
9409;SDS011;4744;52.576;13.568;2024-03-02T02:00:17;53.05;;;29.27;;
9409;SDS011;4744;52.576;13.568;2024-03-02T02:02:44;58.65;;;28.08;;
9409;SDS011;4744;52.576;13.568;2024-03-02T02:05:12;62.40;;;29.50;;
9409;SDS011;4744;52.576;13.568;2024-03-02T02:07:39;69.60;;;31.63;;
9409;SDS011;4744;52.576;13.568;2024-03-02T02:10:09;65.50;;;29.17;;
9409;SDS011;4744;52.576;13.568;2024-03-02T02:12:36;65.65;;;29.48;;
9409;SDS011;4744;52.576;13.568;2024-03-02T02:15:07;71.60;;;31.25;;
9409;SDS011;4744;52.576;13.568;2024-03-02T02:17:48;74.15;;;31.77;;
9409;SDS011;4744;52.576;13.568;2024-03-02T02:20:15;73.00;;;32.53;;
9409;SDS011;4744;52.576;13.568;2024-03-02T02:22:53;77.93;;;32.85;;
9409;SDS011;4744;52.576;13.568;2024-03-02T02:25:23;80.53;;;33.30;;
9409;SDS011;4744;52.576;13.568;2024-03-02T02:27:51;78.85;;;33.78;;
9409;SDS011;4744;52.576;13.568;2024-03-02T02:30:18;78.97;;;36.40;;
9409;SDS011;4744;52.576;13.568;2024-03-02T02:32:46;85.75;;;34.75;;
9409;SDS011;4744;52.576;13.568;2024-03-02T02:35:13;86.68;;;34.42;;
9409;SDS011;4744;52.576;13.568;2024-03-02T02:37:40;91.00;;;37.33;;
9409;SDS011;4744;52.576;13.568;2024-03-02T02:40:09;92.03;;;36.75;;
9409;SDS011;4744;52.576;13.568;2024-03-02T02:42:37;90.55;;;38.65;;
9409;SDS011;4744;52.576;13.568;2024-03-02T02:45:05;91.03;;;36.70;;
9409;SDS011;4744;52.576;13.568;2024-03-02T02:47:32;92.78;;;37.78;;
9409;SDS011;4744;52.576;13.568;2024-03-02T02:50:00;95.10;;;39.75;;
9409;SDS011;4744;52.576;13.568;2024-03-02T02:52:30;99.75;;;38.60;;
9409;SDS011;4744;52.576;13.568;2024-03-02T02:55:00;93.50;;;40.25;;
9409;SDS011;4744;52.576;13.568;2024-03-02T02:57:29;94.25;;;39.28;;
9409;SDS011;4744;52.576;13.568;2024-03-02T03:00:00;102.72;;;40.72;;
9409;SDS011;4744;52.576;13.568;2024-03-02T03:02:29;99.85;;;40.70;;
9409;SDS011;4744;52.576;13.568;2024-03-02T03:04:56;99.72;;;40.92;;
9409;SDS011;4744;52.576;13.568;2024-03-02T03:07:23;108.13;;;42.15;;
9409;SDS011;4744;52.576;13.568;2024-03-02T03:09:50;111.93;;;45.20;;
9409;SDS011;4744;52.576;13.568;2024-03-02T03:12:16;104.22;;;42.38;;
9409;SDS011;4744;52.576;13.568;2024-03-02T03:14:45;125.95;;;45.67;;
9409;SDS011;4744;52.576;13.568;2024-03-02T03:17:12;130.35;;;46.83;;
9409;SDS011;4744;52.576;13.568;2024-03-02T03:19:39;126.65;;;46.05;;
9409;SDS011;4744;52.576;13.568;2024-03-02T03:22:06;117.72;;;45.78;;
9409;SDS011;4744;52.576;13.568;2024-03-02T03:24:33;120.28;;;46.75;;
9409;SDS011;4744;52.576;13.568;2024-03-02T03:27:00;128.07;;;46.17;;
9409;SDS011;4744;52.576;13.568;2024-03-02T03:29:27;125.15;;;46.80;;
9409;SDS011;4744;52.576;13.568;2024-03-02T03:31:55;124.45;;;46.58;;
9409;SDS011;4744;52.576;13.568;2024-03-02T03:34:22;132.73;;;46.97;;
9409;SDS011;4744;52.576;13.568;2024-03-02T03:36:49;113.47;;;46.15;;
9409;SDS011;4744;52.576;13.568;2024-03-02T03:39:16;125.18;;;46.95;;
9409;SDS011;4744;52.576;13.568;2024-03-02T03:41:43;125.82;;;47.88;;
9409;SDS011;4744;52.576;13.568;2024-03-02T03:44:10;122.00;;;45.35;;
9409;SDS011;4744;52.576;13.568;2024-03-02T03:46:37;131.18;;;45.70;;
9409;SDS011;4744;52.576;13.568;2024-03-02T03:49:05;117.55;;;43.35;;
9409;SDS011;4744;52.576;13.568;2024-03-02T03:54:00;110.53;;;42.03;;
9409;SDS011;4744;52.576;13.568;2024-03-02T03:56:27;120.03;;;44.33;;
9409;SDS011;4744;52.576;13.568;2024-03-02T03:58:54;106.93;;;41.50;;
9409;SDS011;4744;52.576;13.568;2024-03-02T04:01:21;105.18;;;43.58;;
9409;SDS011;4744;52.576;13.568;2024-03-02T04:03:48;115.45;;;46.53;;
9409;SDS011;4744;52.576;13.568;2024-03-02T04:06:16;117.03;;;44.00;;
9409;SDS011;4744;52.576;13.568;2024-03-02T04:08:43;119.70;;;45.85;;
9409;SDS011;4744;52.576;13.568;2024-03-02T04:11:10;116.50;;;44.65;;
9409;SDS011;4744;52.576;13.568;2024-03-02T04:13:37;112.93;;;44.00;;
9409;SDS011;4744;52.576;13.568;2024-03-02T04:16:04;118.28;;;42.35;;
9409;SDS011;4744;52.576;13.568;2024-03-02T04:18:31;109.90;;;44.28;;
9409;SDS011;4744;52.576;13.568;2024-03-02T04:20:58;116.53;;;45.55;;
9409;SDS011;4744;52.576;13.568;2024-03-02T04:23:26;119.93;;;45.03;;
9409;SDS011;4744;52.576;13.568;2024-03-02T04:25:53;107.32;;;43.25;;
9409;SDS011;4744;52.576;13.568;2024-03-02T04:28:20;117.20;;;45.38;;
9409;SDS011;4744;52.576;13.568;2024-03-02T04:30:47;107.82;;;43.33;;
9409;SDS011;4744;52.576;13.568;2024-03-02T04:33:14;115.15;;;45.33;;
9409;SDS011;4744;52.576;13.568;2024-03-02T04:35:41;102.70;;;44.22;;
9409;SDS011;4744;52.576;13.568;2024-03-02T04:38:08;96.72;;;41.58;;
9409;SDS011;4744;52.576;13.568;2024-03-02T04:40:36;110.15;;;43.63;;
9409;SDS011;4744;52.576;13.568;2024-03-02T04:43:03;112.78;;;42.60;;
9409;SDS011;4744;52.576;13.568;2024-03-02T04:45:30;100.78;;;40.92;;
9409;SDS011;4744;52.576;13.568;2024-03-02T04:47:57;107.25;;;42.20;;
9409;SDS011;4744;52.576;13.568;2024-03-02T04:50:24;105.32;;;42.08;;
9409;SDS011;4744;52.576;13.568;2024-03-02T04:52:50;104.97;;;41.08;;
9409;SDS011;4744;52.576;13.568;2024-03-02T04:55:17;103.75;;;41.92;;
9409;SDS011;4744;52.576;13.568;2024-03-02T04:58:11;102.20;;;40.88;;
9409;SDS011;4744;52.576;13.568;2024-03-02T05:00:38;99.70;;;39.10;;
9409;SDS011;4744;52.576;13.568;2024-03-02T05:03:05;86.00;;;37.70;;
9409;SDS011;4744;52.576;13.568;2024-03-02T05:05:32;91.30;;;39.13;;
9409;SDS011;4744;52.576;13.568;2024-03-02T05:08:00;92.85;;;38.58;;
9409;SDS011;4744;52.576;13.568;2024-03-02T05:10:28;97.80;;;39.70;;
9409;SDS011;4744;52.576;13.568;2024-03-02T05:12:55;98.00;;;37.85;;
9409;SDS011;4744;52.576;13.568;2024-03-02T05:15:25;93.85;;;39.90;;
9409;SDS011;4744;52.576;13.568;2024-03-02T05:17:52;97.10;;;39.72;;
9409;SDS011;4744;52.576;13.568;2024-03-02T05:20:19;98.07;;;37.55;;
9409;SDS011;4744;52.576;13.568;2024-03-02T05:22:46;98.55;;;40.15;;
9409;SDS011;4744;52.576;13.568;2024-03-02T05:25:13;101.45;;;38.58;;
9409;SDS011;4744;52.576;13.568;2024-03-02T05:27:40;100.55;;;40.15;;
9409;SDS011;4744;52.576;13.568;2024-03-02T05:30:07;99.40;;;41.80;;
9409;SDS011;4744;52.576;13.568;2024-03-02T05:32:36;103.15;;;39.35;;
9409;SDS011;4744;52.576;13.568;2024-03-02T05:35:04;102.32;;;39.85;;
9409;SDS011;4744;52.576;13.568;2024-03-02T05:37:31;101.20;;;38.88;;
9409;SDS011;4744;52.576;13.568;2024-03-02T05:39:59;93.05;;;38.75;;
9409;SDS011;4744;52.576;13.568;2024-03-02T05:42:25;89.28;;;35.83;;
9409;SDS011;4744;52.576;13.568;2024-03-02T05:44:53;86.35;;;38.10;;
9409;SDS011;4744;52.576;13.568;2024-03-02T05:47:19;89.07;;;38.17;;
9409;SDS011;4744;52.576;13.568;2024-03-02T05:49:48;94.47;;;36.97;;
9409;SDS011;4744;52.576;13.568;2024-03-02T05:52:15;82.45;;;36.67;;
9409;SDS011;4744;52.576;13.568;2024-03-02T05:54:42;80.68;;;35.05;;
9409;SDS011;4744;52.576;13.568;2024-03-02T05:57:09;93.10;;;38.47;;
9409;SDS011;4744;52.576;13.568;2024-03-02T05:59:58;81.80;;;34.53;;
9409;SDS011;4744;52.576;13.568;2024-03-02T06:02:25;88.40;;;36.28;;
9409;SDS011;4744;52.576;13.568;2024-03-02T06:04:55;80.07;;;35.17;;
9409;SDS011;4744;52.576;13.568;2024-03-02T06:07:22;80.88;;;34.45;;
9409;SDS011;4744;52.576;13.568;2024-03-02T06:09:49;75.47;;;34.47;;
9409;SDS011;4744;52.576;13.568;2024-03-02T06:12:17;90.57;;;36.15;;
9409;SDS011;4744;52.576;13.568;2024-03-02T06:14:44;76.85;;;34.20;;
9409;SDS011;4744;52.576;13.568;2024-03-02T06:17:11;72.25;;;33.92;;
9409;SDS011;4744;52.576;13.568;2024-03-02T06:19:38;73.05;;;32.85;;
9409;SDS011;4744;52.576;13.568;2024-03-02T06:22:08;75.57;;;33.97;;
9409;SDS011;4744;52.576;13.568;2024-03-02T06:24:35;81.57;;;32.42;;
9409;SDS011;4744;52.576;13.568;2024-03-02T06:27:02;73.55;;;33.20;;
9409;SDS011;4744;52.576;13.568;2024-03-02T06:29:32;75.18;;;33.55;;
9409;SDS011;4744;52.576;13.568;2024-03-02T06:31:59;75.63;;;31.67;;
9409;SDS011;4744;52.576;13.568;2024-03-02T06:34:26;74.75;;;32.67;;
9409;SDS011;4744;52.576;13.568;2024-03-02T06:36:53;82.63;;;33.72;;
9409;SDS011;4744;52.576;13.568;2024-03-02T06:39:21;72.35;;;33.70;;
9409;SDS011;4744;52.576;13.568;2024-03-02T06:41:48;81.72;;;35.78;;
9409;SDS011;4744;52.576;13.568;2024-03-02T06:44:15;74.13;;;34.70;;
9409;SDS011;4744;52.576;13.568;2024-03-02T06:46:42;77.13;;;35.22;;
9409;SDS011;4744;52.576;13.568;2024-03-02T06:49:08;77.55;;;34.08;;
9409;SDS011;4744;52.576;13.568;2024-03-02T06:51:35;77.13;;;34.97;;
9409;SDS011;4744;52.576;13.568;2024-03-02T06:54:02;79.30;;;35.90;;
9409;SDS011;4744;52.576;13.568;2024-03-02T06:56:31;83.28;;;36.28;;
9409;SDS011;4744;52.576;13.568;2024-03-02T06:58:59;82.43;;;35.30;;
9409;SDS011;4744;52.576;13.568;2024-03-02T07:01:26;79.32;;;35.25;;
9409;SDS011;4744;52.576;13.568;2024-03-02T07:03:53;72.90;;;34.70;;
9409;SDS011;4744;52.576;13.568;2024-03-02T07:06:20;77.57;;;34.60;;
9409;SDS011;4744;52.576;13.568;2024-03-02T07:08:46;78.35;;;34.80;;
9409;SDS011;4744;52.576;13.568;2024-03-02T07:11:13;83.90;;;35.65;;
9409;SDS011;4744;52.576;13.568;2024-03-02T07:13:42;83.25;;;34.28;;
9409;SDS011;4744;52.576;13.568;2024-03-02T07:16:08;85.28;;;33.33;;
9409;SDS011;4744;52.576;13.568;2024-03-02T07:18:55;74.90;;;35.20;;
9409;SDS011;4744;52.576;13.568;2024-03-02T07:21:22;83.25;;;34.08;;
9409;SDS011;4744;52.576;13.568;2024-03-02T07:23:49;75.97;;;33.05;;
9409;SDS011;4744;52.576;13.568;2024-03-02T07:26:17;86.38;;;34.22;;
9409;SDS011;4744;52.576;13.568;2024-03-02T07:28:46;82.28;;;33.78;;
9409;SDS011;4744;52.576;13.568;2024-03-02T07:31:14;82.88;;;35.45;;
9409;SDS011;4744;52.576;13.568;2024-03-02T07:33:43;71.20;;;32.67;;
9409;SDS011;4744;52.576;13.568;2024-03-02T07:38:37;86.53;;;33.83;;
9409;SDS011;4744;52.576;13.568;2024-03-02T07:41:05;73.75;;;33.03;;
9409;SDS011;4744;52.576;13.568;2024-03-02T07:43:32;73.78;;;34.47;;
9409;SDS011;4744;52.576;13.568;2024-03-02T07:46:00;78.22;;;36.28;;
9409;SDS011;4744;52.576;13.568;2024-03-02T07:48:28;84.07;;;35.72;;
9409;SDS011;4744;52.576;13.568;2024-03-02T07:50:55;79.85;;;36.03;;
9409;SDS011;4744;52.576;13.568;2024-03-02T07:53:22;75.80;;;33.65;;
9409;SDS011;4744;52.576;13.568;2024-03-02T07:55:49;85.43;;;35.88;;
9409;SDS011;4744;52.576;13.568;2024-03-02T07:58:16;82.88;;;36.20;;
9409;SDS011;4744;52.576;13.568;2024-03-02T08:00:44;78.20;;;34.83;;
9409;SDS011;4744;52.576;13.568;2024-03-02T08:03:13;73.10;;;33.75;;
9409;SDS011;4744;52.576;13.568;2024-03-02T08:05:40;70.78;;;33.97;;
9409;SDS011;4744;52.576;13.568;2024-03-02T08:08:07;73.07;;;33.47;;
9409;SDS011;4744;52.576;13.568;2024-03-02T08:10:34;70.25;;;34.08;;
9409;SDS011;4744;52.576;13.568;2024-03-02T08:13:00;77.22;;;32.70;;
9409;SDS011;4744;52.576;13.568;2024-03-02T08:15:28;72.95;;;33.33;;
9409;SDS011;4744;52.576;13.568;2024-03-02T08:17:55;74.18;;;32.75;;
9409;SDS011;4744;52.576;13.568;2024-03-02T08:20:23;73.72;;;34.20;;
9409;SDS011;4744;52.576;13.568;2024-03-02T08:22:50;73.78;;;33.88;;
9409;SDS011;4744;52.576;13.568;2024-03-02T08:25:20;77.88;;;34.05;;
9409;SDS011;4744;52.576;13.568;2024-03-02T08:27:47;71.78;;;32.47;;
9409;SDS011;4744;52.576;13.568;2024-03-02T08:30:14;69.22;;;32.22;;
9409;SDS011;4744;52.576;13.568;2024-03-02T08:32:41;71.10;;;32.28;;
9409;SDS011;4744;52.576;13.568;2024-03-02T08:35:08;66.78;;;32.28;;
9409;SDS011;4744;52.576;13.568;2024-03-02T08:37:36;69.57;;;31.60;;
9409;SDS011;4744;52.576;13.568;2024-03-02T08:40:06;71.97;;;32.08;;
9409;SDS011;4744;52.576;13.568;2024-03-02T08:42:34;66.30;;;30.63;;
9409;SDS011;4744;52.576;13.568;2024-03-02T08:45:01;62.65;;;30.13;;
9409;SDS011;4744;52.576;13.568;2024-03-02T08:47:28;62.97;;;28.88;;
9409;SDS011;4744;52.576;13.568;2024-03-02T08:49:55;65.38;;;28.92;;
9409;SDS011;4744;52.576;13.568;2024-03-02T08:52:21;64.30;;;29.65;;
9409;SDS011;4744;52.576;13.568;2024-03-02T08:54:50;64.28;;;29.50;;
9409;SDS011;4744;52.576;13.568;2024-03-02T08:57:17;63.08;;;29.52;;
9409;SDS011;4744;52.576;13.568;2024-03-02T08:59:44;59.78;;;28.08;;
9409;SDS011;4744;52.576;13.568;2024-03-02T09:02:11;62.95;;;30.52;;
9409;SDS011;4744;52.576;13.568;2024-03-02T09:04:38;64.18;;;29.83;;
9409;SDS011;4744;52.576;13.568;2024-03-02T09:07:04;63.85;;;28.35;;
9409;SDS011;4744;52.576;13.568;2024-03-02T09:09:32;60.05;;;30.48;;
9409;SDS011;4744;52.576;13.568;2024-03-02T09:12:01;57.15;;;29.33;;
9409;SDS011;4744;52.576;13.568;2024-03-02T09:14:28;60.88;;;28.67;;
9409;SDS011;4744;52.576;13.568;2024-03-02T09:16:55;62.10;;;27.63;;
9409;SDS011;4744;52.576;13.568;2024-03-02T09:19:22;61.05;;;28.95;;
9409;SDS011;4744;52.576;13.568;2024-03-02T09:21:49;63.80;;;29.38;;
9409;SDS011;4744;52.576;13.568;2024-03-02T09:24:16;60.40;;;29.80;;
9409;SDS011;4744;52.576;13.568;2024-03-02T09:26:43;52.00;;;26.77;;
9409;SDS011;4744;52.576;13.568;2024-03-02T09:29:11;59.97;;;29.52;;
9409;SDS011;4744;52.576;13.568;2024-03-02T09:31:39;51.88;;;26.70;;
9409;SDS011;4744;52.576;13.568;2024-03-02T09:34:06;55.40;;;27.40;;
9409;SDS011;4744;52.576;13.568;2024-03-02T09:36:33;55.78;;;27.35;;
9409;SDS011;4744;52.576;13.568;2024-03-02T09:39:00;58.53;;;27.15;;
9409;SDS011;4744;52.576;13.568;2024-03-02T09:41:28;59.33;;;28.65;;
9409;SDS011;4744;52.576;13.568;2024-03-02T09:43:55;57.60;;;27.30;;
9409;SDS011;4744;52.576;13.568;2024-03-02T09:46:25;57.35;;;27.88;;
9409;SDS011;4744;52.576;13.568;2024-03-02T09:48:52;53.13;;;26.80;;
9409;SDS011;4744;52.576;13.568;2024-03-02T09:51:19;56.30;;;26.85;;
9409;SDS011;4744;52.576;13.568;2024-03-02T09:53:46;49.47;;;25.98;;
9409;SDS011;4744;52.576;13.568;2024-03-02T09:56:14;56.40;;;24.95;;
9409;SDS011;4744;52.576;13.568;2024-03-02T09:58:43;49.85;;;24.40;;
9409;SDS011;4744;52.576;13.568;2024-03-02T10:01:10;52.63;;;23.55;;
9409;SDS011;4744;52.576;13.568;2024-03-02T10:03:39;46.97;;;22.33;;
9409;SDS011;4744;52.576;13.568;2024-03-02T10:06:18;46.75;;;22.85;;
9409;SDS011;4744;52.576;13.568;2024-03-02T10:08:46;40.67;;;21.75;;
9409;SDS011;4744;52.576;13.568;2024-03-02T10:11:24;43.10;;;21.90;;
9409;SDS011;4744;52.576;13.568;2024-03-02T10:14:03;39.95;;;20.65;;
9409;SDS011;4744;52.576;13.568;2024-03-02T10:16:33;36.35;;;18.95;;
9409;SDS011;4744;52.576;13.568;2024-03-02T10:19:16;41.25;;;22.13;;
9409;SDS011;4744;52.576;13.568;2024-03-02T10:21:44;33.20;;;19.15;;
9409;SDS011;4744;52.576;13.568;2024-03-02T10:24:11;36.10;;;18.23;;
9409;SDS011;4744;52.576;13.568;2024-03-02T10:26:38;34.92;;;18.60;;
9409;SDS011;4744;52.576;13.568;2024-03-02T10:29:06;39.35;;;19.23;;
9409;SDS011;4744;52.576;13.568;2024-03-02T10:31:35;35.38;;;19.00;;
9409;SDS011;4744;52.576;13.568;2024-03-02T10:34:03;33.70;;;18.10;;
9409;SDS011;4744;52.576;13.568;2024-03-02T10:36:32;35.20;;;17.48;;
9409;SDS011;4744;52.576;13.568;2024-03-02T10:41:29;34.17;;;16.88;;
9409;SDS011;4744;52.576;13.568;2024-03-02T10:43:58;33.63;;;18.58;;
9409;SDS011;4744;52.576;13.568;2024-03-02T10:46:27;39.47;;;18.50;;
9409;SDS011;4744;52.576;13.568;2024-03-02T10:51:24;43.08;;;20.45;;
9409;SDS011;4744;52.576;13.568;2024-03-02T10:53:52;38.53;;;19.23;;
9409;SDS011;4744;52.576;13.568;2024-03-02T10:58:49;36.83;;;18.98;;
9409;SDS011;4744;52.576;13.568;2024-03-02T11:01:21;37.72;;;18.42;;
9409;SDS011;4744;52.576;13.568;2024-03-02T11:03:49;32.63;;;18.17;;
9409;SDS011;4744;52.576;13.568;2024-03-02T11:06:16;35.22;;;19.95;;
9409;SDS011;4744;52.576;13.568;2024-03-02T11:08:43;32.10;;;16.92;;
9409;SDS011;4744;52.576;13.568;2024-03-02T11:11:24;25.65;;;15.75;;
9409;SDS011;4744;52.576;13.568;2024-03-02T11:13:56;32.75;;;15.73;;
9409;SDS011;4744;52.576;13.568;2024-03-02T11:16:33;31.02;;;15.82;;
9409;SDS011;4744;52.576;13.568;2024-03-02T11:19:02;30.23;;;16.60;;
9409;SDS011;4744;52.576;13.568;2024-03-02T11:21:32;33.42;;;16.45;;
9409;SDS011;4744;52.576;13.568;2024-03-02T11:23:59;29.70;;;16.92;;
9409;SDS011;4744;52.576;13.568;2024-03-02T11:26:28;30.40;;;16.02;;
9409;SDS011;4744;52.576;13.568;2024-03-02T11:29:04;28.67;;;14.98;;
9409;SDS011;4744;52.576;13.568;2024-03-02T11:31:57;29.80;;;14.07;;
9409;SDS011;4744;52.576;13.568;2024-03-02T11:34:28;25.27;;;14.38;;
9409;SDS011;4744;52.576;13.568;2024-03-02T11:36:56;27.33;;;14.25;;
9409;SDS011;4744;52.576;13.568;2024-03-02T11:39:24;27.45;;;15.15;;
9409;SDS011;4744;52.576;13.568;2024-03-02T11:41:52;28.88;;;14.32;;
9409;SDS011;4744;52.576;13.568;2024-03-02T11:46:48;24.05;;;13.88;;
9409;SDS011;4744;52.576;13.568;2024-03-02T11:49:20;23.83;;;14.10;;
9409;SDS011;4744;52.576;13.568;2024-03-02T11:52:04;31.17;;;14.00;;
9409;SDS011;4744;52.576;13.568;2024-03-02T11:54:32;25.63;;;13.20;;
9409;SDS011;4744;52.576;13.568;2024-03-02T11:57:02;24.27;;;12.75;;
9409;SDS011;4744;52.576;13.568;2024-03-02T11:59:29;20.58;;;11.95;;
9409;SDS011;4744;52.576;13.568;2024-03-02T12:01:56;25.45;;;13.18;;
9409;SDS011;4744;52.576;13.568;2024-03-02T12:04:24;25.23;;;13.43;;
9409;SDS011;4744;52.576;13.568;2024-03-02T12:06:54;24.98;;;12.65;;
9409;SDS011;4744;52.576;13.568;2024-03-02T12:09:22;22.63;;;12.48;;
9409;SDS011;4744;52.576;13.568;2024-03-02T12:12:00;25.38;;;12.65;;
9409;SDS011;4744;52.576;13.568;2024-03-02T12:14:30;23.38;;;12.25;;
9409;SDS011;4744;52.576;13.568;2024-03-02T12:16:57;23.45;;;11.40;;
9409;SDS011;4744;52.576;13.568;2024-03-02T12:19:25;23.52;;;12.25;;
9409;SDS011;4744;52.576;13.568;2024-03-02T12:21:52;22.77;;;12.25;;
9409;SDS011;4744;52.576;13.568;2024-03-02T12:24:20;25.00;;;12.20;;
9409;SDS011;4744;52.576;13.568;2024-03-02T12:26:48;24.35;;;11.90;;
9409;SDS011;4744;52.576;13.568;2024-03-02T12:29:17;21.15;;;11.35;;
9409;SDS011;4744;52.576;13.568;2024-03-02T12:31:45;24.30;;;12.20;;
9409;SDS011;4744;52.576;13.568;2024-03-02T12:34:13;23.65;;;12.02;;
9409;SDS011;4744;52.576;13.568;2024-03-02T12:36:41;22.10;;;11.52;;
9409;SDS011;4744;52.576;13.568;2024-03-02T12:39:08;18.85;;;11.65;;
9409;SDS011;4744;52.576;13.568;2024-03-02T12:41:36;19.50;;;10.93;;
9409;SDS011;4744;52.576;13.568;2024-03-02T12:44:03;20.70;;;10.75;;
9409;SDS011;4744;52.576;13.568;2024-03-02T12:46:32;21.80;;;11.70;;
9409;SDS011;4744;52.576;13.568;2024-03-02T12:49:05;19.92;;;10.60;;
9409;SDS011;4744;52.576;13.568;2024-03-02T12:51:35;19.23;;;12.02;;
9409;SDS011;4744;52.576;13.568;2024-03-02T12:54:02;18.13;;;9.40;;
9409;SDS011;4744;52.576;13.568;2024-03-02T12:56:30;24.58;;;10.05;;
9409;SDS011;4744;52.576;13.568;2024-03-02T12:58:58;16.45;;;8.82;;
9409;SDS011;4744;52.576;13.568;2024-03-02T13:01:25;14.43;;;8.80;;
9409;SDS011;4744;52.576;13.568;2024-03-02T13:03:53;15.75;;;9.38;;
9409;SDS011;4744;52.576;13.568;2024-03-02T13:06:22;14.25;;;8.80;;
9409;SDS011;4744;52.576;13.568;2024-03-02T13:08:49;13.85;;;8.80;;
9409;SDS011;4744;52.576;13.568;2024-03-02T13:11:16;15.27;;;9.50;;
9409;SDS011;4744;52.576;13.568;2024-03-02T13:13:43;16.25;;;8.77;;
9409;SDS011;4744;52.576;13.568;2024-03-02T13:16:10;15.63;;;8.82;;
9409;SDS011;4744;52.576;13.568;2024-03-02T13:18:38;14.77;;;8.70;;
9409;SDS011;4744;52.576;13.568;2024-03-02T13:21:07;14.27;;;8.23;;
9409;SDS011;4744;52.576;13.568;2024-03-02T13:23:34;17.13;;;9.32;;
9409;SDS011;4744;52.576;13.568;2024-03-02T13:26:01;16.55;;;8.50;;
9409;SDS011;4744;52.576;13.568;2024-03-02T13:28:28;16.08;;;8.25;;
9409;SDS011;4744;52.576;13.568;2024-03-02T13:30:55;15.35;;;9.07;;
9409;SDS011;4744;52.576;13.568;2024-03-02T13:33:23;13.10;;;7.57;;
9409;SDS011;4744;52.576;13.568;2024-03-02T13:35:50;16.65;;;8.73;;
9409;SDS011;4744;52.576;13.568;2024-03-02T13:38:18;16.10;;;8.43;;
9409;SDS011;4744;52.576;13.568;2024-03-02T13:40:46;12.85;;;7.70;;
9409;SDS011;4744;52.576;13.568;2024-03-02T13:43:16;12.65;;;7.47;;
9409;SDS011;4744;52.576;13.568;2024-03-02T13:45:43;12.70;;;7.60;;
9409;SDS011;4744;52.576;13.568;2024-03-02T13:48:10;12.65;;;7.55;;
9409;SDS011;4744;52.576;13.568;2024-03-02T13:50:39;14.77;;;8.45;;
9409;SDS011;4744;52.576;13.568;2024-03-02T13:53:06;13.32;;;8.18;;
9409;SDS011;4744;52.576;13.568;2024-03-02T13:55:35;12.15;;;7.25;;
9409;SDS011;4744;52.576;13.568;2024-03-02T13:58:03;15.02;;;7.75;;
9409;SDS011;4744;52.576;13.568;2024-03-02T14:00:30;15.07;;;7.75;;
9409;SDS011;4744;52.576;13.568;2024-03-02T14:02:57;11.93;;;7.40;;
9409;SDS011;4744;52.576;13.568;2024-03-02T14:05:24;14.07;;;7.72;;
9409;SDS011;4744;52.576;13.568;2024-03-02T14:07:51;12.85;;;7.95;;
9409;SDS011;4744;52.576;13.568;2024-03-02T14:10:17;13.57;;;7.20;;
9409;SDS011;4744;52.576;13.568;2024-03-02T14:12:48;15.43;;;8.32;;
9409;SDS011;4744;52.576;13.568;2024-03-02T14:15:15;13.65;;;8.35;;
9409;SDS011;4744;52.576;13.568;2024-03-02T14:17:42;16.25;;;8.07;;
9409;SDS011;4744;52.576;13.568;2024-03-02T14:20:09;14.43;;;7.38;;
9409;SDS011;4744;52.576;13.568;2024-03-02T14:22:38;13.95;;;8.05;;
9409;SDS011;4744;52.576;13.568;2024-03-02T14:25:05;12.13;;;6.75;;
9409;SDS011;4744;52.576;13.568;2024-03-02T14:27:32;12.05;;;7.30;;
9409;SDS011;4744;52.576;13.568;2024-03-02T14:30:02;10.70;;;6.68;;
9409;SDS011;4744;52.576;13.568;2024-03-02T14:32:30;10.48;;;5.97;;
9409;SDS011;4744;52.576;13.568;2024-03-02T14:34:57;10.60;;;5.97;;
9409;SDS011;4744;52.576;13.568;2024-03-02T14:37:24;11.52;;;5.97;;
9409;SDS011;4744;52.576;13.568;2024-03-02T14:39:51;11.85;;;5.65;;
9409;SDS011;4744;52.576;13.568;2024-03-02T14:42:18;8.93;;;5.40;;
9409;SDS011;4744;52.576;13.568;2024-03-02T14:44:45;13.48;;;6.95;;
9409;SDS011;4744;52.576;13.568;2024-03-02T14:47:13;15.30;;;8.48;;
9409;SDS011;4744;52.576;13.568;2024-03-02T14:49:40;18.48;;;9.65;;
9409;SDS011;4744;52.576;13.568;2024-03-02T14:52:09;20.38;;;10.65;;
9409;SDS011;4744;52.576;13.568;2024-03-02T14:54:36;17.02;;;9.70;;
9409;SDS011;4744;52.576;13.568;2024-03-02T14:57:03;19.63;;;10.35;;